sensor_id;sensor_type;location;lat;lon;timestamp;P1;durP1;ratioP1;P2;durP2;ratioP2
76123;SDS011;65173;48.066;20.976;2023-09-18T00:02:04;13.33;;;6.37;;
76123;SDS011;65173;48.066;20.976;2023-09-18T00:05:07;9.77;;;5.60;;
76123;SDS011;65173;48.066;20.976;2023-09-18T00:08:10;11.95;;;6.13;;
76123;SDS011;65173;48.066;20.976;2023-09-18T00:11:12;14.80;;;7.07;;
76123;SDS011;65173;48.066;20.976;2023-09-18T00:14:15;12.88;;;7.00;;
76123;SDS011;65173;48.066;20.976;2023-09-18T00:17:17;13.00;;;6.72;;
76123;SDS011;65173;48.066;20.976;2023-09-18T00:20:21;11.27;;;6.60;;
76123;SDS011;65173;48.066;20.976;2023-09-18T00:23:29;12.55;;;8.20;;
76123;SDS011;65173;48.066;20.976;2023-09-18T00:26:31;11.38;;;6.38;;
76123;SDS011;65173;48.066;20.976;2023-09-18T00:29:34;12.98;;;6.75;;
76123;SDS011;65173;48.066;20.976;2023-09-18T00:32:37;10.27;;;6.13;;
76123;SDS011;65173;48.066;20.976;2023-09-18T00:35:40;13.73;;;6.97;;
76123;SDS011;65173;48.066;20.976;2023-09-18T00:38:42;11.73;;;6.55;;
76123;SDS011;65173;48.066;20.976;2023-09-18T00:41:46;11.63;;;6.60;;
76123;SDS011;65173;48.066;20.976;2023-09-18T00:44:51;14.63;;;6.75;;
76123;SDS011;65173;48.066;20.976;2023-09-18T00:47:54;10.50;;;6.28;;
76123;SDS011;65173;48.066;20.976;2023-09-18T00:50:56;11.02;;;6.70;;
76123;SDS011;65173;48.066;20.976;2023-09-18T00:53:59;16.77;;;6.82;;
76123;SDS011;65173;48.066;20.976;2023-09-18T00:57:02;12.35;;;7.22;;
76123;SDS011;65173;48.066;20.976;2023-09-18T01:00:06;10.65;;;6.45;;
76123;SDS011;65173;48.066;20.976;2023-09-18T01:03:09;12.83;;;7.03;;
76123;SDS011;65173;48.066;20.976;2023-09-18T01:06:12;13.65;;;7.68;;
76123;SDS011;65173;48.066;20.976;2023-09-18T01:09:16;14.32;;;7.00;;
76123;SDS011;65173;48.066;20.976;2023-09-18T01:12:33;11.93;;;7.03;;
76123;SDS011;65173;48.066;20.976;2023-09-18T01:15:38;11.65;;;6.40;;
76123;SDS011;65173;48.066;20.976;2023-09-18T01:18:50;10.65;;;6.55;;
76123;SDS011;65173;48.066;20.976;2023-09-18T01:21:53;11.73;;;6.47;;
76123;SDS011;65173;48.066;20.976;2023-09-18T01:24:55;13.30;;;7.22;;
76123;SDS011;65173;48.066;20.976;2023-09-18T01:27:58;13.27;;;7.40;;
76123;SDS011;65173;48.066;20.976;2023-09-18T01:31:00;11.68;;;6.68;;
76123;SDS011;65173;48.066;20.976;2023-09-18T01:34:03;12.53;;;6.27;;
76123;SDS011;65173;48.066;20.976;2023-09-18T01:37:05;13.55;;;6.28;;
76123;SDS011;65173;48.066;20.976;2023-09-18T01:40:09;13.43;;;6.80;;
76123;SDS011;65173;48.066;20.976;2023-09-18T01:43:13;11.10;;;5.90;;
76123;SDS011;65173;48.066;20.976;2023-09-18T01:46:15;9.85;;;5.82;;
76123;SDS011;65173;48.066;20.976;2023-09-18T01:49:26;11.48;;;7.05;;
76123;SDS011;65173;48.066;20.976;2023-09-18T01:52:35;9.75;;;5.88;;
76123;SDS011;65173;48.066;20.976;2023-09-18T01:55:38;11.43;;;6.38;;
76123;SDS011;65173;48.066;20.976;2023-09-18T01:58:41;15.63;;;6.60;;
76123;SDS011;65173;48.066;20.976;2023-09-18T02:01:44;11.70;;;6.47;;
76123;SDS011;65173;48.066;20.976;2023-09-18T02:04:47;9.03;;;5.57;;
76123;SDS011;65173;48.066;20.976;2023-09-18T02:08:07;10.02;;;6.10;;
76123;SDS011;65173;48.066;20.976;2023-09-18T02:11:10;10.52;;;5.80;;
76123;SDS011;65173;48.066;20.976;2023-09-18T02:14:12;9.93;;;5.63;;
76123;SDS011;65173;48.066;20.976;2023-09-18T02:17:15;6.68;;;4.65;;
76123;SDS011;65173;48.066;20.976;2023-09-18T02:20:18;10.57;;;5.47;;
76123;SDS011;65173;48.066;20.976;2023-09-18T02:23:20;14.63;;;7.07;;
76123;SDS011;65173;48.066;20.976;2023-09-18T02:26:23;10.43;;;5.45;;
76123;SDS011;65173;48.066;20.976;2023-09-18T02:29:26;11.77;;;5.70;;
76123;SDS011;65173;48.066;20.976;2023-09-18T02:32:30;12.88;;;7.30;;
76123;SDS011;65173;48.066;20.976;2023-09-18T02:35:33;10.87;;;6.53;;
76123;SDS011;65173;48.066;20.976;2023-09-18T02:38:35;9.20;;;5.38;;
76123;SDS011;65173;48.066;20.976;2023-09-18T02:41:38;8.85;;;5.13;;
76123;SDS011;65173;48.066;20.976;2023-09-18T02:44:40;7.70;;;4.13;;
76123;SDS011;65173;48.066;20.976;2023-09-18T02:47:43;9.98;;;4.53;;
76123;SDS011;65173;48.066;20.976;2023-09-18T02:50:46;6.47;;;4.88;;
76123;SDS011;65173;48.066;20.976;2023-09-18T02:53:48;10.40;;;5.65;;
76123;SDS011;65173;48.066;20.976;2023-09-18T02:56:51;11.07;;;5.43;;
76123;SDS011;65173;48.066;20.976;2023-09-18T02:59:53;9.20;;;6.25;;
76123;SDS011;65173;48.066;20.976;2023-09-18T03:02:56;10.55;;;5.30;;
76123;SDS011;65173;48.066;20.976;2023-09-18T03:06:02;10.37;;;5.40;;
76123;SDS011;65173;48.066;20.976;2023-09-18T03:09:07;11.75;;;5.80;;
76123;SDS011;65173;48.066;20.976;2023-09-18T03:12:10;9.18;;;5.38;;
76123;SDS011;65173;48.066;20.976;2023-09-18T03:15:13;11.33;;;5.23;;
76123;SDS011;65173;48.066;20.976;2023-09-18T03:18:16;10.40;;;5.32;;
76123;SDS011;65173;48.066;20.976;2023-09-18T03:21:18;9.60;;;5.35;;
76123;SDS011;65173;48.066;20.976;2023-09-18T03:24:21;6.72;;;4.35;;
76123;SDS011;65173;48.066;20.976;2023-09-18T03:27:23;6.95;;;4.85;;
76123;SDS011;65173;48.066;20.976;2023-09-18T03:30:31;8.48;;;4.43;;
76123;SDS011;65173;48.066;20.976;2023-09-18T03:33:34;9.05;;;5.18;;
76123;SDS011;65173;48.066;20.976;2023-09-18T03:36:36;7.27;;;4.37;;
76123;SDS011;65173;48.066;20.976;2023-09-18T03:39:41;7.97;;;4.30;;
76123;SDS011;65173;48.066;20.976;2023-09-18T03:42:44;8.23;;;4.68;;
76123;SDS011;65173;48.066;20.976;2023-09-18T03:45:47;7.53;;;4.67;;
76123;SDS011;65173;48.066;20.976;2023-09-18T03:48:50;7.03;;;5.03;;
76123;SDS011;65173;48.066;20.976;2023-09-18T03:51:53;9.88;;;5.22;;
76123;SDS011;65173;48.066;20.976;2023-09-18T03:54:56;12.05;;;7.32;;
76123;SDS011;65173;48.066;20.976;2023-09-18T03:57:58;14.00;;;7.43;;
76123;SDS011;65173;48.066;20.976;2023-09-18T04:01:01;15.60;;;6.53;;
76123;SDS011;65173;48.066;20.976;2023-09-18T04:04:04;11.52;;;6.90;;
76123;SDS011;65173;48.066;20.976;2023-09-18T04:07:08;16.53;;;7.70;;
76123;SDS011;65173;48.066;20.976;2023-09-18T04:10:11;11.60;;;6.78;;
76123;SDS011;65173;48.066;20.976;2023-09-18T04:13:20;17.83;;;8.27;;
76123;SDS011;65173;48.066;20.976;2023-09-18T04:16:23;16.07;;;8.43;;
76123;SDS011;65173;48.066;20.976;2023-09-18T04:19:25;11.98;;;5.97;;
76123;SDS011;65173;48.066;20.976;2023-09-18T04:22:28;12.30;;;7.05;;
76123;SDS011;65173;48.066;20.976;2023-09-18T04:25:31;7.80;;;5.95;;
76123;SDS011;65173;48.066;20.976;2023-09-18T04:28:34;13.60;;;5.45;;
76123;SDS011;65173;48.066;20.976;2023-09-18T04:31:36;8.70;;;6.28;;
76123;SDS011;65173;48.066;20.976;2023-09-18T04:34:40;12.50;;;7.07;;
76123;SDS011;65173;48.066;20.976;2023-09-18T04:37:42;13.70;;;7.60;;
76123;SDS011;65173;48.066;20.976;2023-09-18T04:40:45;14.68;;;8.18;;
76123;SDS011;65173;48.066;20.976;2023-09-18T04:43:48;12.30;;;7.07;;
76123;SDS011;65173;48.066;20.976;2023-09-18T04:46:51;12.03;;;6.27;;
76123;SDS011;65173;48.066;20.976;2023-09-18T04:49:54;11.57;;;7.57;;
76123;SDS011;65173;48.066;20.976;2023-09-18T04:52:57;13.40;;;7.35;;
76123;SDS011;65173;48.066;20.976;2023-09-18T04:56:00;13.32;;;6.30;;
76123;SDS011;65173;48.066;20.976;2023-09-18T04:59:03;13.52;;;7.10;;
76123;SDS011;65173;48.066;20.976;2023-09-18T05:02:06;11.95;;;6.38;;
76123;SDS011;65173;48.066;20.976;2023-09-18T05:05:09;11.82;;;6.72;;
76123;SDS011;65173;48.066;20.976;2023-09-18T05:08:11;12.47;;;6.87;;
76123;SDS011;65173;48.066;20.976;2023-09-18T05:11:14;13.38;;;6.93;;
76123;SDS011;65173;48.066;20.976;2023-09-18T05:14:16;11.02;;;7.05;;
76123;SDS011;65173;48.066;20.976;2023-09-18T05:17:19;11.57;;;6.33;;
76123;SDS011;65173;48.066;20.976;2023-09-18T05:20:21;8.73;;;5.68;;
76123;SDS011;65173;48.066;20.976;2023-09-18T05:23:26;8.63;;;5.55;;
76123;SDS011;65173;48.066;20.976;2023-09-18T05:26:28;12.82;;;6.38;;
76123;SDS011;65173;48.066;20.976;2023-09-18T05:29:32;9.77;;;6.75;;
76123;SDS011;65173;48.066;20.976;2023-09-18T05:32:35;10.05;;;6.38;;
76123;SDS011;65173;48.066;20.976;2023-09-18T05:35:41;11.32;;;7.22;;
76123;SDS011;65173;48.066;20.976;2023-09-18T05:38:45;11.60;;;5.87;;
76123;SDS011;65173;48.066;20.976;2023-09-18T05:41:48;10.30;;;5.53;;
76123;SDS011;65173;48.066;20.976;2023-09-18T05:44:50;10.55;;;5.78;;
76123;SDS011;65173;48.066;20.976;2023-09-18T05:47:53;8.93;;;5.90;;
76123;SDS011;65173;48.066;20.976;2023-09-18T05:50:55;12.68;;;6.32;;
76123;SDS011;65173;48.066;20.976;2023-09-18T05:53:59;10.35;;;5.50;;
76123;SDS011;65173;48.066;20.976;2023-09-18T05:57:02;9.48;;;5.88;;
76123;SDS011;65173;48.066;20.976;2023-09-18T06:00:06;8.77;;;5.10;;
76123;SDS011;65173;48.066;20.976;2023-09-18T06:03:15;9.93;;;6.07;;
76123;SDS011;65173;48.066;20.976;2023-09-18T06:06:21;9.55;;;5.97;;
76123;SDS011;65173;48.066;20.976;2023-09-18T06:09:23;10.10;;;5.23;;
76123;SDS011;65173;48.066;20.976;2023-09-18T06:12:26;11.65;;;5.93;;
76123;SDS011;65173;48.066;20.976;2023-09-18T06:15:28;9.90;;;5.65;;
76123;SDS011;65173;48.066;20.976;2023-09-18T06:18:31;9.97;;;5.77;;
76123;SDS011;65173;48.066;20.976;2023-09-18T06:21:33;8.93;;;5.53;;
76123;SDS011;65173;48.066;20.976;2023-09-18T06:24:36;11.30;;;6.53;;
76123;SDS011;65173;48.066;20.976;2023-09-18T06:27:38;10.73;;;6.50;;
76123;SDS011;65173;48.066;20.976;2023-09-18T06:30:41;9.98;;;5.60;;
76123;SDS011;65173;48.066;20.976;2023-09-18T06:33:43;9.85;;;5.80;;
76123;SDS011;65173;48.066;20.976;2023-09-18T06:36:46;10.02;;;5.90;;
76123;SDS011;65173;48.066;20.976;2023-09-18T06:39:48;9.67;;;5.87;;
76123;SDS011;65173;48.066;20.976;2023-09-18T06:42:51;7.38;;;5.40;;
76123;SDS011;65173;48.066;20.976;2023-09-18T06:45:56;11.65;;;6.85;;
76123;SDS011;65173;48.066;20.976;2023-09-18T06:49:00;8.83;;;5.87;;
76123;SDS011;65173;48.066;20.976;2023-09-18T06:52:03;10.68;;;5.85;;
76123;SDS011;65173;48.066;20.976;2023-09-18T06:55:08;9.38;;;5.57;;
76123;SDS011;65173;48.066;20.976;2023-09-18T06:58:11;10.43;;;5.63;;
76123;SDS011;65173;48.066;20.976;2023-09-18T07:01:13;9.80;;;5.82;;
76123;SDS011;65173;48.066;20.976;2023-09-18T07:04:17;11.27;;;5.43;;
76123;SDS011;65173;48.066;20.976;2023-09-18T07:07:20;7.55;;;5.03;;
76123;SDS011;65173;48.066;20.976;2023-09-18T07:10:27;7.73;;;5.43;;
76123;SDS011;65173;48.066;20.976;2023-09-18T07:13:30;8.40;;;5.53;;
76123;SDS011;65173;48.066;20.976;2023-09-18T07:16:32;10.60;;;4.88;;
76123;SDS011;65173;48.066;20.976;2023-09-18T07:19:36;8.40;;;5.40;;
76123;SDS011;65173;48.066;20.976;2023-09-18T07:22:39;7.72;;;4.97;;
76123;SDS011;65173;48.066;20.976;2023-09-18T07:25:43;7.63;;;5.60;;
76123;SDS011;65173;48.066;20.976;2023-09-18T07:28:46;6.70;;;4.82;;
76123;SDS011;65173;48.066;20.976;2023-09-18T07:31:49;7.90;;;4.93;;
76123;SDS011;65173;48.066;20.976;2023-09-18T07:34:51;8.15;;;4.82;;
76123;SDS011;65173;48.066;20.976;2023-09-18T07:37:54;6.80;;;4.30;;
76123;SDS011;65173;48.066;20.976;2023-09-18T07:40:56;4.60;;;4.10;;
76123;SDS011;65173;48.066;20.976;2023-09-18T07:43:59;6.82;;;4.00;;
76123;SDS011;65173;48.066;20.976;2023-09-18T07:47:01;5.00;;;3.97;;
76123;SDS011;65173;48.066;20.976;2023-09-18T07:50:04;15.83;;;4.23;;
76123;SDS011;65173;48.066;20.976;2023-09-18T07:53:07;8.35;;;4.32;;
76123;SDS011;65173;48.066;20.976;2023-09-18T07:56:10;6.28;;;3.80;;
76123;SDS011;65173;48.066;20.976;2023-09-18T07:59:13;5.13;;;3.72;;
76123;SDS011;65173;48.066;20.976;2023-09-18T08:02:16;8.40;;;3.85;;
76123;SDS011;65173;48.066;20.976;2023-09-18T08:05:24;6.15;;;3.83;;
76123;SDS011;65173;48.066;20.976;2023-09-18T08:08:30;5.93;;;3.60;;
76123;SDS011;65173;48.066;20.976;2023-09-18T08:11:35;3.97;;;3.50;;
76123;SDS011;65173;48.066;20.976;2023-09-18T08:14:38;4.32;;;2.97;;
76123;SDS011;65173;48.066;20.976;2023-09-18T08:17:41;4.38;;;3.40;;
76123;SDS011;65173;48.066;20.976;2023-09-18T08:20:44;6.00;;;4.00;;
76123;SDS011;65173;48.066;20.976;2023-09-18T08:23:47;5.88;;;3.78;;
76123;SDS011;65173;48.066;20.976;2023-09-18T08:26:51;6.55;;;4.30;;
76123;SDS011;65173;48.066;20.976;2023-09-18T08:29:54;4.00;;;3.45;;
76123;SDS011;65173;48.066;20.976;2023-09-18T08:32:56;4.82;;;3.88;;
76123;SDS011;65173;48.066;20.976;2023-09-18T08:35:59;6.25;;;4.13;;
76123;SDS011;65173;48.066;20.976;2023-09-18T08:39:03;4.88;;;3.72;;
76123;SDS011;65173;48.066;20.976;2023-09-18T08:42:09;4.03;;;3.47;;
76123;SDS011;65173;48.066;20.976;2023-09-18T08:45:22;3.92;;;3.55;;
76123;SDS011;65173;48.066;20.976;2023-09-18T08:48:28;4.32;;;3.92;;
76123;SDS011;65173;48.066;20.976;2023-09-18T08:51:37;4.37;;;3.47;;
76123;SDS011;65173;48.066;20.976;2023-09-18T08:54:40;4.15;;;3.08;;
76123;SDS011;65173;48.066;20.976;2023-09-18T08:57:43;6.35;;;3.50;;
76123;SDS011;65173;48.066;20.976;2023-09-18T09:00:46;5.35;;;3.45;;
76123;SDS011;65173;48.066;20.976;2023-09-18T09:03:49;3.80;;;3.35;;
76123;SDS011;65173;48.066;20.976;2023-09-18T09:06:51;4.50;;;3.67;;
76123;SDS011;65173;48.066;20.976;2023-09-18T09:09:54;3.92;;;3.63;;
76123;SDS011;65173;48.066;20.976;2023-09-18T09:12:59;4.07;;;3.47;;
76123;SDS011;65173;48.066;20.976;2023-09-18T09:16:03;3.90;;;3.20;;
76123;SDS011;65173;48.066;20.976;2023-09-18T09:19:06;5.20;;;3.55;;
76123;SDS011;65173;48.066;20.976;2023-09-18T09:22:09;3.60;;;3.30;;
76123;SDS011;65173;48.066;20.976;2023-09-18T09:25:29;4.38;;;3.50;;
76123;SDS011;65173;48.066;20.976;2023-09-18T09:28:33;5.20;;;3.28;;
76123;SDS011;65173;48.066;20.976;2023-09-18T09:31:36;4.70;;;3.92;;
76123;SDS011;65173;48.066;20.976;2023-09-18T09:34:40;3.90;;;3.50;;
76123;SDS011;65173;48.066;20.976;2023-09-18T09:37:44;3.75;;;3.45;;
76123;SDS011;65173;48.066;20.976;2023-09-18T09:40:46;5.07;;;3.97;;
76123;SDS011;65173;48.066;20.976;2023-09-18T09:43:49;3.60;;;3.30;;
76123;SDS011;65173;48.066;20.976;2023-09-18T09:46:53;4.10;;;3.70;;
76123;SDS011;65173;48.066;20.976;2023-09-18T09:49:55;4.28;;;3.83;;
76123;SDS011;65173;48.066;20.976;2023-09-18T09:52:58;4.63;;;4.23;;
76123;SDS011;65173;48.066;20.976;2023-09-18T09:56:01;4.43;;;3.30;;
76123;SDS011;65173;48.066;20.976;2023-09-18T09:59:04;4.88;;;3.70;;
76123;SDS011;65173;48.066;20.976;2023-09-18T10:02:10;8.05;;;3.97;;
76123;SDS011;65173;48.066;20.976;2023-09-18T10:05:17;7.13;;;4.05;;
76123;SDS011;65173;48.066;20.976;2023-09-18T10:08:22;4.15;;;3.70;;
76123;SDS011;65173;48.066;20.976;2023-09-18T10:11:27;6.05;;;3.88;;
76123;SDS011;65173;48.066;20.976;2023-09-18T10:14:33;4.17;;;3.40;;
76123;SDS011;65173;48.066;20.976;2023-09-18T10:17:56;4.35;;;3.30;;
76123;SDS011;65173;48.066;20.976;2023-09-18T10:21:25;4.47;;;3.78;;
76123;SDS011;65173;48.066;20.976;2023-09-18T10:24:34;8.03;;;3.30;;
76123;SDS011;65173;48.066;20.976;2023-09-18T10:27:41;3.90;;;3.50;;
76123;SDS011;65173;48.066;20.976;2023-09-18T10:30:45;3.50;;;2.97;;
76123;SDS011;65173;48.066;20.976;2023-09-18T10:33:48;4.65;;;3.95;;
76123;SDS011;65173;48.066;20.976;2023-09-18T10:36:53;5.10;;;4.05;;
76123;SDS011;65173;48.066;20.976;2023-09-18T10:39:56;6.18;;;3.90;;
76123;SDS011;65173;48.066;20.976;2023-09-18T10:43:02;3.80;;;3.28;;
76123;SDS011;65173;48.066;20.976;2023-09-18T10:46:06;4.73;;;3.33;;
76123;SDS011;65173;48.066;20.976;2023-09-18T10:49:09;4.93;;;4.10;;
76123;SDS011;65173;48.066;20.976;2023-09-18T10:52:12;4.30;;;3.55;;
76123;SDS011;65173;48.066;20.976;2023-09-18T10:55:16;5.93;;;4.40;;
76123;SDS011;65173;48.066;20.976;2023-09-18T10:58:24;3.88;;;3.58;;
76123;SDS011;65173;48.066;20.976;2023-09-18T11:01:28;5.32;;;3.95;;
76123;SDS011;65173;48.066;20.976;2023-09-18T11:04:32;3.88;;;3.58;;
76123;SDS011;65173;48.066;20.976;2023-09-18T11:07:35;5.88;;;3.75;;
76123;SDS011;65173;48.066;20.976;2023-09-18T11:10:42;3.67;;;3.33;;
76123;SDS011;65173;48.066;20.976;2023-09-18T11:13:57;5.00;;;3.42;;
76123;SDS011;65173;48.066;20.976;2023-09-18T11:16:59;5.70;;;3.70;;
76123;SDS011;65173;48.066;20.976;2023-09-18T11:20:06;4.57;;;3.05;;
76123;SDS011;65173;48.066;20.976;2023-09-18T11:26:16;4.83;;;3.97;;
76123;SDS011;65173;48.066;20.976;2023-09-18T11:29:22;4.57;;;3.90;;
76123;SDS011;65173;48.066;20.976;2023-09-18T11:32:38;5.32;;;3.75;;
76123;SDS011;65173;48.066;20.976;2023-09-18T11:35:51;4.68;;;3.50;;
76123;SDS011;65173;48.066;20.976;2023-09-18T11:38:57;3.30;;;2.60;;
76123;SDS011;65173;48.066;20.976;2023-09-18T11:42:09;5.45;;;3.00;;
76123;SDS011;65173;48.066;20.976;2023-09-18T11:45:16;3.92;;;3.00;;
76123;SDS011;65173;48.066;20.976;2023-09-18T11:48:20;3.30;;;2.80;;
76123;SDS011;65173;48.066;20.976;2023-09-18T11:51:23;5.80;;;3.72;;
76123;SDS011;65173;48.066;20.976;2023-09-18T11:54:29;4.47;;;4.05;;
76123;SDS011;65173;48.066;20.976;2023-09-18T11:57:36;5.57;;;2.90;;
76123;SDS011;65173;48.066;20.976;2023-09-18T12:00:39;5.90;;;2.65;;
76123;SDS011;65173;48.066;20.976;2023-09-18T12:03:54;4.70;;;3.45;;
76123;SDS011;65173;48.066;20.976;2023-09-18T12:06:57;4.53;;;3.55;;
76123;SDS011;65173;48.066;20.976;2023-09-18T12:10:04;3.70;;;2.63;;
76123;SDS011;65173;48.066;20.976;2023-09-18T12:13:11;5.43;;;3.45;;
76123;SDS011;65173;48.066;20.976;2023-09-18T12:16:14;5.13;;;3.42;;
76123;SDS011;65173;48.066;20.976;2023-09-18T12:19:17;4.33;;;3.53;;
76123;SDS011;65173;48.066;20.976;2023-09-18T12:22:26;5.97;;;3.28;;
76123;SDS011;65173;48.066;20.976;2023-09-18T12:25:30;4.50;;;3.38;;
76123;SDS011;65173;48.066;20.976;2023-09-18T12:28:35;4.50;;;3.30;;
76123;SDS011;65173;48.066;20.976;2023-09-18T12:31:38;3.33;;;2.70;;
76123;SDS011;65173;48.066;20.976;2023-09-18T12:34:41;4.20;;;2.70;;
76123;SDS011;65173;48.066;20.976;2023-09-18T12:37:44;3.85;;;3.42;;
76123;SDS011;65173;48.066;20.976;2023-09-18T12:40:47;3.13;;;2.83;;
76123;SDS011;65173;48.066;20.976;2023-09-18T12:43:50;4.03;;;3.63;;
76123;SDS011;65173;48.066;20.976;2023-09-18T12:46:53;8.82;;;3.20;;
76123;SDS011;65173;48.066;20.976;2023-09-18T12:50:01;3.47;;;2.87;;
76123;SDS011;65173;48.066;20.976;2023-09-18T12:53:11;4.30;;;3.00;;
76123;SDS011;65173;48.066;20.976;2023-09-18T12:56:15;4.38;;;2.75;;
76123;SDS011;65173;48.066;20.976;2023-09-18T12:59:18;5.63;;;3.10;;
76123;SDS011;65173;48.066;20.976;2023-09-18T13:02:21;4.82;;;3.42;;
76123;SDS011;65173;48.066;20.976;2023-09-18T13:05:30;6.47;;;3.50;;
76123;SDS011;65173;48.066;20.976;2023-09-18T13:08:37;3.50;;;3.17;;
76123;SDS011;65173;48.066;20.976;2023-09-18T13:11:53;4.30;;;3.10;;
76123;SDS011;65173;48.066;20.976;2023-09-18T13:15:00;3.10;;;2.83;;
76123;SDS011;65173;48.066;20.976;2023-09-18T13:18:11;4.30;;;3.67;;
76123;SDS011;65173;48.066;20.976;2023-09-18T13:21:14;3.80;;;3.10;;
76123;SDS011;65173;48.066;20.976;2023-09-18T13:27:32;3.38;;;2.95;;
76123;SDS011;65173;48.066;20.976;2023-09-18T13:30:35;3.67;;;3.30;;
76123;SDS011;65173;48.066;20.976;2023-09-18T13:33:41;3.63;;;3.10;;
76123;SDS011;65173;48.066;20.976;2023-09-18T13:36:47;4.47;;;3.15;;
76123;SDS011;65173;48.066;20.976;2023-09-18T13:39:50;8.63;;;3.10;;
76123;SDS011;65173;48.066;20.976;2023-09-18T13:42:53;3.33;;;3.03;;
76123;SDS011;65173;48.066;20.976;2023-09-18T13:45:55;4.28;;;3.40;;
76123;SDS011;65173;48.066;20.976;2023-09-18T13:48:59;4.88;;;3.22;;
76123;SDS011;65173;48.066;20.976;2023-09-18T13:52:02;4.93;;;3.20;;
76123;SDS011;65173;48.066;20.976;2023-09-18T13:55:05;3.28;;;2.97;;
76123;SDS011;65173;48.066;20.976;2023-09-18T13:58:08;3.00;;;2.70;;
76123;SDS011;65173;48.066;20.976;2023-09-18T14:01:11;3.10;;;2.80;;
76123;SDS011;65173;48.066;20.976;2023-09-18T14:04:14;3.83;;;3.20;;
76123;SDS011;65173;48.066;20.976;2023-09-18T14:07:17;3.85;;;3.45;;
76123;SDS011;65173;48.066;20.976;2023-09-18T14:10:19;4.07;;;2.58;;
76123;SDS011;65173;48.066;20.976;2023-09-18T14:13:24;6.90;;;3.25;;
76123;SDS011;65173;48.066;20.976;2023-09-18T14:16:26;4.47;;;3.03;;
76123;SDS011;65173;48.066;20.976;2023-09-18T14:19:29;3.88;;;3.20;;
76123;SDS011;65173;48.066;20.976;2023-09-18T14:22:32;3.70;;;2.87;;
76123;SDS011;65173;48.066;20.976;2023-09-18T14:25:36;4.57;;;3.38;;
76123;SDS011;65173;48.066;20.976;2023-09-18T14:28:38;3.75;;;3.40;;
76123;SDS011;65173;48.066;20.976;2023-09-18T14:31:41;3.03;;;2.70;;
76123;SDS011;65173;48.066;20.976;2023-09-18T14:34:44;3.65;;;3.10;;
76123;SDS011;65173;48.066;20.976;2023-09-18T14:37:48;3.47;;;3.17;;
76123;SDS011;65173;48.066;20.976;2023-09-18T14:40:51;3.50;;;3.10;;
76123;SDS011;65173;48.066;20.976;2023-09-18T14:43:53;3.45;;;2.65;;
76123;SDS011;65173;48.066;20.976;2023-09-18T14:46:56;6.50;;;3.63;;
76123;SDS011;65173;48.066;20.976;2023-09-18T14:49:58;3.08;;;2.35;;
76123;SDS011;65173;48.066;20.976;2023-09-18T14:53:01;4.30;;;2.90;;
76123;SDS011;65173;48.066;20.976;2023-09-18T14:56:05;5.03;;;3.20;;
76123;SDS011;65173;48.066;20.976;2023-09-18T14:59:15;3.63;;;3.28;;
76123;SDS011;65173;48.066;20.976;2023-09-18T15:02:33;3.43;;;2.57;;
76123;SDS011;65173;48.066;20.976;2023-09-18T15:05:37;2.92;;;2.65;;
76123;SDS011;65173;48.066;20.976;2023-09-18T15:08:40;3.35;;;2.60;;
76123;SDS011;65173;48.066;20.976;2023-09-18T15:11:42;4.95;;;3.20;;
76123;SDS011;65173;48.066;20.976;2023-09-18T15:14:45;7.43;;;3.05;;
76123;SDS011;65173;48.066;20.976;2023-09-18T15:17:48;3.13;;;2.53;;
76123;SDS011;65173;48.066;20.976;2023-09-18T15:20:52;3.75;;;2.88;;
76123;SDS011;65173;48.066;20.976;2023-09-18T15:23:56;3.27;;;2.60;;
76123;SDS011;65173;48.066;20.976;2023-09-18T15:26:59;3.20;;;2.38;;
76123;SDS011;65173;48.066;20.976;2023-09-18T15:30:03;3.55;;;3.05;;
76123;SDS011;65173;48.066;20.976;2023-09-18T15:33:07;3.70;;;2.73;;
76123;SDS011;65173;48.066;20.976;2023-09-18T15:36:10;3.72;;;2.63;;
76123;SDS011;65173;48.066;20.976;2023-09-18T15:39:12;3.17;;;2.42;;
76123;SDS011;65173;48.066;20.976;2023-09-18T15:42:15;6.38;;;3.08;;
76123;SDS011;65173;48.066;20.976;2023-09-18T15:45:18;3.17;;;2.85;;
76123;SDS011;65173;48.066;20.976;2023-09-18T15:48:20;4.88;;;2.75;;
76123;SDS011;65173;48.066;20.976;2023-09-18T15:51:23;3.60;;;3.30;;
76123;SDS011;65173;48.066;20.976;2023-09-18T15:54:25;4.10;;;2.80;;
76123;SDS011;65173;48.066;20.976;2023-09-18T15:57:31;4.90;;;2.55;;
76123;SDS011;65173;48.066;20.976;2023-09-18T16:00:37;6.00;;;3.08;;
76123;SDS011;65173;48.066;20.976;2023-09-18T16:03:40;3.93;;;2.83;;
76123;SDS011;65173;48.066;20.976;2023-09-18T16:06:50;4.63;;;2.63;;
76123;SDS011;65173;48.066;20.976;2023-09-18T16:09:52;6.82;;;2.80;;
76123;SDS011;65173;48.066;20.976;2023-09-18T16:12:57;5.70;;;3.08;;
76123;SDS011;65173;48.066;20.976;2023-09-18T16:15:59;3.60;;;2.85;;
76123;SDS011;65173;48.066;20.976;2023-09-18T16:19:03;3.88;;;2.70;;
76123;SDS011;65173;48.066;20.976;2023-09-18T16:22:05;3.25;;;2.92;;
76123;SDS011;65173;48.066;20.976;2023-09-18T16:25:08;5.57;;;2.63;;
76123;SDS011;65173;48.066;20.976;2023-09-18T16:28:11;3.60;;;3.10;;
76123;SDS011;65173;48.066;20.976;2023-09-18T16:31:13;4.10;;;2.88;;
76123;SDS011;65173;48.066;20.976;2023-09-18T16:34:16;4.97;;;3.40;;
76123;SDS011;65173;48.066;20.976;2023-09-18T16:37:18;5.43;;;3.03;;
76123;SDS011;65173;48.066;20.976;2023-09-18T16:40:21;4.82;;;2.92;;
76123;SDS011;65173;48.066;20.976;2023-09-18T16:43:24;4.40;;;3.08;;
76123;SDS011;65173;48.066;20.976;2023-09-18T16:46:26;5.07;;;3.25;;
76123;SDS011;65173;48.066;20.976;2023-09-18T16:49:29;3.72;;;2.88;;
76123;SDS011;65173;48.066;20.976;2023-09-18T16:52:31;6.22;;;2.70;;
76123;SDS011;65173;48.066;20.976;2023-09-18T16:55:34;3.37;;;2.67;;
76123;SDS011;65173;48.066;20.976;2023-09-18T16:58:37;3.65;;;3.10;;
76123;SDS011;65173;48.066;20.976;2023-09-18T17:01:40;4.10;;;3.13;;
76123;SDS011;65173;48.066;20.976;2023-09-18T17:04:42;5.07;;;3.23;;
76123;SDS011;65173;48.066;20.976;2023-09-18T17:07:52;5.00;;;3.38;;
76123;SDS011;65173;48.066;20.976;2023-09-18T17:10:55;6.35;;;3.90;;
76123;SDS011;65173;48.066;20.976;2023-09-18T17:13:59;4.88;;;3.05;;
76123;SDS011;65173;48.066;20.976;2023-09-18T17:17:02;6.40;;;3.20;;
76123;SDS011;65173;48.066;20.976;2023-09-18T17:20:05;5.55;;;3.45;;
76123;SDS011;65173;48.066;20.976;2023-09-18T17:23:09;4.25;;;3.40;;
76123;SDS011;65173;48.066;20.976;2023-09-18T17:26:11;7.07;;;3.33;;
76123;SDS011;65173;48.066;20.976;2023-09-18T17:29:13;6.50;;;2.65;;
76123;SDS011;65173;48.066;20.976;2023-09-18T17:32:16;5.50;;;3.78;;
76123;SDS011;65173;48.066;20.976;2023-09-18T17:35:18;5.10;;;2.60;;
76123;SDS011;65173;48.066;20.976;2023-09-18T17:38:21;4.82;;;2.95;;
76123;SDS011;65173;48.066;20.976;2023-09-18T17:41:23;7.25;;;3.20;;
76123;SDS011;65173;48.066;20.976;2023-09-18T17:44:26;6.22;;;3.67;;
76123;SDS011;65173;48.066;20.976;2023-09-18T17:47:29;8.02;;;4.03;;
76123;SDS011;65173;48.066;20.976;2023-09-18T17:50:32;6.05;;;4.28;;
76123;SDS011;65173;48.066;20.976;2023-09-18T17:53:35;6.50;;;3.65;;
76123;SDS011;65173;48.066;20.976;2023-09-18T17:56:39;8.20;;;4.87;;
76123;SDS011;65173;48.066;20.976;2023-09-18T17:59:41;6.78;;;4.30;;
76123;SDS011;65173;48.066;20.976;2023-09-18T18:02:45;9.55;;;4.32;;
76123;SDS011;65173;48.066;20.976;2023-09-18T18:05:49;9.37;;;4.60;;
76123;SDS011;65173;48.066;20.976;2023-09-18T18:08:54;8.43;;;4.38;;
76123;SDS011;65173;48.066;20.976;2023-09-18T18:11:57;8.10;;;4.63;;
76123;SDS011;65173;48.066;20.976;2023-09-18T18:14:59;9.02;;;4.88;;